PWSweather.com
Personal Weather Stations
Station Observations
KILDUNLA3
Devonshire, Dunlap, IL 61525

DevonshireDunlap, IL 61525

Lat: 40.82881546, Lon: -89.62155914

Elevation: 758

Station Type: Oregon Scientific WMR100

http://jimroal.com

Latest ConditionsUpdated 8:10:37 PM CDT Monday, Mar 25, 2019
Currently Today's Max Today's Min Today's Average
Temperature 39.5°F4.2°C 47.8°F8.8°C 34.3°F1.3°C 41.1°F5.1°C
Dew Point 17.4°F-8.1°C 40.6°F4.8°C 17.4°F-8.1°C 28.7°F-1.8°C
Winds 3.3 mph N5.3 kmh N 9.0 mph -14.5 kmh - - 5.8 mph 9.3 kmh
Wind Gusts 5.6 mph9.0 kmh 14.5 mph23.3 kmh - -
Humidity 40% 97% 40% 64%
Pressure 30.27 in1025.1 mb 30.27 in1025.1 mb 30.02 in1016.6 mb -
Hour Temp Dew Point Humidity Winds Wind Gusts Pressure Precip Precip Rate Daily Precip Total
08:10 PM 39.5°F4.2°C 17.4°F-8.1°C 40% 3.3 mph N5.3 kmh N 5.6 mph9.0 kmh 30.27 in1025.1 mb 0.00 in0.0 mm 0.00 in0.0 mm 0.00 in0.0 mm
08:05 PM 39.8°F4.3°C 17.7°F-7.9°C 40% 3.0 mph N4.8 kmh N 5.8 mph9.3 kmh 30.27 in1025.1 mb 0.00 in0.0 mm 0.00 in0.0 mm 0.00 in0.0 mm
08:00 PM 39.9°F4.4°C 17.8°F-7.9°C 40% 3.5 mph N5.6 kmh N 5.8 mph9.3 kmh 30.26 in1024.7 mb 0.00 in0.0 mm 0.00 in0.0 mm 0.00 in0.0 mm
07:55 PM 40.1°F4.5°C 18.0°F-7.8°C 40% 3.6 mph N5.8 kmh N 5.4 mph8.7 kmh 30.26 in1024.7 mb 0.00 in0.0 mm 0.00 in0.0 mm 0.00 in0.0 mm
07:50 PM 40.4°F4.7°C 18.2°F-7.7°C 40% 3.2 mph N5.1 kmh N 4.9 mph7.9 kmh 30.26 in1024.7 mb 0.00 in0.0 mm 0.00 in0.0 mm 0.00 in0.0 mm
07:45 PM 40.5°F4.7°C 18.3°F-7.6°C 40% 3.2 mph N5.1 kmh N 6.0 mph9.7 kmh 30.26 in1024.7 mb 0.00 in0.0 mm 0.00 in0.0 mm 0.00 in0.0 mm
07:40 PM 40.9°F4.9°C 18.7°F-7.4°C 40% 3.4 mph N5.5 kmh N 6.0 mph9.7 kmh 30.25 in1024.4 mb 0.00 in0.0 mm 0.00 in0.0 mm 0.00 in0.0 mm
07:35 PM 41.1°F5.1°C 18.9°F-7.3°C 40% 3.3 mph N5.3 kmh N 4.9 mph7.9 kmh 30.25 in1024.4 mb 0.00 in0.0 mm 0.00 in0.0 mm 0.00 in0.0 mm
07:30 PM 41.3°F5.2°C 19.1°F-7.2°C 40% 2.8 mph NNW4.5 kmh NNW 6.0 mph9.7 kmh 30.25 in1024.4 mb 0.00 in0.0 mm 0.00 in0.0 mm 0.00 in0.0 mm
07:25 PM 41.7°F5.4°C 19.7°F-6.8°C 41% 2.5 mph NNW4.0 kmh NNW 6.0 mph9.7 kmh 30.25 in1024.4 mb 0.00 in0.0 mm 0.00 in0.0 mm 0.00 in0.0 mm
07:20 PM 42.2°F5.7°C 21.5°F-5.8°C 43% 2.5 mph N4.0 kmh N 5.4 mph8.7 kmh 30.25 in1024.4 mb 0.00 in0.0 mm 0.00 in0.0 mm 0.00 in0.0 mm
07:15 PM 42.6°F5.9°C 22.0°F-5.6°C 44% 3.7 mph NNW6.0 kmh NNW 5.8 mph9.3 kmh 30.25 in1024.4 mb 0.00 in0.0 mm 0.00 in0.0 mm 0.00 in0.0 mm
07:10 PM 42.9°F6.1°C 21.7°F-5.7°C 43% 4.0 mph NNW6.4 kmh NNW 6.5 mph10.5 kmh 30.25 in1024.4 mb 0.00 in0.0 mm 0.00 in0.0 mm 0.00 in0.0 mm
07:05 PM 43.3°F6.3°C 22.1°F-5.5°C 43% 4.6 mph NNW7.4 kmh NNW 6.5 mph10.5 kmh 30.25 in1024.4 mb 0.00 in0.0 mm 0.00 in0.0 mm 0.00 in0.0 mm
07:00 PM 43.5°F6.4°C 22.3°F-5.4°C 43% 4.6 mph N7.4 kmh N 6.3 mph10.1 kmh 30.25 in1024.4 mb 0.00 in0.0 mm 0.00 in0.0 mm 0.00 in0.0 mm
06:55 PM 43.7°F6.5°C 22.5°F-5.3°C 43% 4.0 mph N6.4 kmh N 5.8 mph9.3 kmh 30.24 in1024.0 mb 0.00 in0.0 mm 0.00 in0.0 mm 0.00 in0.0 mm
06:50 PM 44.2°F6.8°C 22.9°F-5.1°C 43% 3.0 mph N4.8 kmh N 5.8 mph9.3 kmh 30.24 in1024.0 mb 0.00 in0.0 mm 0.00 in0.0 mm 0.00 in0.0 mm
06:45 PM 44.4°F6.9°C 23.1°F-4.9°C 43% 4.0 mph N6.4 kmh N 6.3 mph10.1 kmh 30.24 in1024.0 mb 0.00 in0.0 mm 0.00 in0.0 mm 0.00 in0.0 mm
06:40 PM 44.6°F7.0°C 23.3°F-4.8°C 43% 4.2 mph N6.8 kmh N 8.1 mph13.0 kmh 30.24 in1024.0 mb 0.00 in0.0 mm 0.00 in0.0 mm 0.00 in0.0 mm
06:35 PM 44.8°F7.1°C 23.5°F-4.7°C 43% 3.4 mph N5.5 kmh N 8.1 mph13.0 kmh 30.24 in1024.0 mb 0.00 in0.0 mm 0.00 in0.0 mm 0.00 in0.0 mm
06:30 PM 45.1°F7.3°C 23.7°F-4.6°C 43% 4.8 mph NNW7.7 kmh NNW 7.8 mph12.6 kmh 30.24 in1024.0 mb 0.00 in0.0 mm 0.00 in0.0 mm 0.00 in0.0 mm
06:25 PM 45.2°F7.3°C 23.9°F-4.5°C 43% 6.0 mph N9.7 kmh N 8.1 mph13.0 kmh 30.24 in1024.0 mb 0.00 in0.0 mm 0.00 in0.0 mm 0.00 in0.0 mm
06:20 PM 45.4°F7.4°C 24.1°F-4.4°C 43% 4.7 mph NNW7.6 kmh NNW 9.6 mph15.4 kmh 30.24 in1024.0 mb 0.00 in0.0 mm 0.00 in0.0 mm 0.00 in0.0 mm
06:15 PM 45.6°F7.6°C 24.2°F-4.3°C 43% 4.6 mph N7.4 kmh N 9.6 mph15.4 kmh 30.24 in1024.0 mb 0.00 in0.0 mm 0.00 in0.0 mm 0.00 in0.0 mm
06:10 PM 45.9°F7.7°C 24.5°F-4.2°C 43% 4.9 mph NNW7.9 kmh NNW 8.7 mph14.0 kmh 30.23 in1023.7 mb 0.00 in0.0 mm 0.00 in0.0 mm 0.00 in0.0 mm
06:05 PM 45.9°F7.7°C 24.5°F-4.2°C 43% 5.0 mph N8.0 kmh N 7.6 mph12.2 kmh 30.23 in1023.7 mb 0.00 in0.0 mm 0.00 in0.0 mm 0.00 in0.0 mm
06:00 PM 46.0°F7.8°C 24.6°F-4.1°C 43% 5.4 mph NNW8.7 kmh NNW 7.6 mph12.2 kmh 30.23 in1023.7 mb 0.00 in0.0 mm 0.00 in0.0 mm 0.00 in0.0 mm
05:55 PM 46.1°F7.8°C 24.7°F-4.1°C 43% 5.0 mph N8.0 kmh N 8.5 mph13.7 kmh 30.23 in1023.7 mb 0.00 in0.0 mm 0.00 in0.0 mm 0.00 in0.0 mm
05:50 PM 46.3°F7.9°C 24.5°F-4.2°C 42% 5.1 mph N8.2 kmh N 8.5 mph13.7 kmh 30.23 in1023.7 mb 0.00 in0.0 mm 0.00 in0.0 mm 0.00 in0.0 mm
05:45 PM 46.5°F8.1°C 24.4°F-4.2°C 42% 5.2 mph NNW8.4 kmh NNW 7.2 mph11.6 kmh 30.23 in1023.7 mb 0.00 in0.0 mm 0.00 in0.0 mm 0.00 in0.0 mm
05:40 PM 46.6°F8.1°C 24.5°F-4.2°C 42% 5.1 mph N8.2 kmh N 7.8 mph12.6 kmh 30.23 in1023.7 mb 0.00 in0.0 mm 0.00 in0.0 mm 0.00 in0.0 mm
05:35 PM 46.8°F8.2°C 24.6°F-4.1°C 42% 5.5 mph N8.9 kmh N 8.1 mph13.0 kmh 30.23 in1023.7 mb 0.00 in0.0 mm 0.00 in0.0 mm 0.00 in0.0 mm
05:30 PM 46.8°F8.2°C 24.6°F-4.1°C 42% 6.2 mph N10.0 kmh N 8.7 mph14.0 kmh 30.23 in1023.7 mb 0.00 in0.0 mm 0.00 in0.0 mm 0.00 in0.0 mm
05:25 PM 46.7°F8.2°C 24.6°F-4.1°C 42% 5.4 mph N8.7 kmh N 8.7 mph14.0 kmh 30.23 in1023.7 mb 0.00 in0.0 mm 0.00 in0.0 mm 0.00 in0.0 mm
05:20 PM 46.7°F8.2°C 24.6°F-4.1°C 42% 4.3 mph N6.9 kmh N 8.7 mph14.0 kmh 30.22 in1023.4 mb 0.00 in0.0 mm 0.00 in0.0 mm 0.00 in0.0 mm
05:15 PM 46.9°F8.3°C 24.8°F-4.0°C 42% 5.2 mph N8.4 kmh N 12.1 mph19.5 kmh 30.22 in1023.4 mb 0.00 in0.0 mm 0.00 in0.0 mm 0.00 in0.0 mm
05:10 PM 47.1°F8.4°C 24.9°F-3.9°C 42% 6.5 mph N10.5 kmh N 12.1 mph19.5 kmh 30.22 in1023.4 mb 0.00 in0.0 mm 0.00 in0.0 mm 0.00 in0.0 mm
05:05 PM 47.1°F8.4°C 24.9°F-3.9°C 42% 5.3 mph NNW8.5 kmh NNW 9.8 mph15.8 kmh 30.22 in1023.4 mb 0.00 in0.0 mm 0.00 in0.0 mm 0.00 in0.0 mm
05:00 PM 47.3°F8.5°C 25.1°F-3.8°C 42% 6.1 mph NNW9.8 kmh NNW 9.8 mph15.8 kmh 30.22 in1023.4 mb 0.00 in0.0 mm 0.00 in0.0 mm 0.00 in0.0 mm
04:55 PM 47.3°F8.5°C 25.1°F-3.8°C 42% 5.9 mph N9.5 kmh N 8.7 mph14.0 kmh 30.22 in1023.4 mb 0.00 in0.0 mm 0.00 in0.0 mm 0.00 in0.0 mm
04:50 PM 47.4°F8.6°C 25.2°F-3.8°C 42% 3.4 mph NNW5.5 kmh NNW 10.3 mph16.6 kmh 30.22 in1023.4 mb 0.00 in0.0 mm 0.00 in0.0 mm 0.00 in0.0 mm
04:45 PM 47.5°F8.6°C 25.3°F-3.7°C 42% 5.9 mph N9.5 kmh N 10.3 mph16.6 kmh 30.22 in1023.4 mb 0.00 in0.0 mm 0.00 in0.0 mm 0.00 in0.0 mm
04:40 PM 47.6°F8.7°C 25.3°F-3.7°C 42% 6.2 mph N10.0 kmh N 9.8 mph15.8 kmh 30.22 in1023.4 mb 0.00 in0.0 mm 0.00 in0.0 mm 0.00 in0.0 mm
04:35 PM 47.3°F8.5°C 25.1°F-3.8°C 42% 4.8 mph N7.7 kmh N 8.9 mph14.3 kmh 30.22 in1023.4 mb 0.00 in0.0 mm 0.00 in0.0 mm 0.00 in0.0 mm
04:30 PM 47.6°F8.7°C 25.3°F-3.7°C 42% 4.8 mph NNW7.7 kmh NNW 8.9 mph14.3 kmh 30.22 in1023.4 mb 0.00 in0.0 mm 0.00 in0.0 mm 0.00 in0.0 mm
04:25 PM 47.7°F8.7°C 25.4°F-3.7°C 42% 5.0 mph NNW8.0 kmh NNW 11.0 mph17.7 kmh 30.21 in1023.0 mb 0.00 in0.0 mm 0.00 in0.0 mm 0.00 in0.0 mm
04:20 PM 47.7°F8.7°C 25.5°F-3.6°C 42% 6.1 mph N9.8 kmh N 12.3 mph19.8 kmh 30.21 in1023.0 mb 0.00 in0.0 mm 0.00 in0.0 mm 0.00 in0.0 mm
04:15 PM 47.7°F8.7°C 25.4°F-3.7°C 42% 6.7 mph N10.8 kmh N 12.3 mph19.8 kmh 30.22 in1023.4 mb 0.00 in0.0 mm 0.00 in0.0 mm 0.00 in0.0 mm
04:10 PM 47.7°F8.7°C 25.5°F-3.6°C 42% 6.4 mph N10.3 kmh N 9.4 mph15.1 kmh 30.21 in1023.0 mb 0.00 in0.0 mm 0.00 in0.0 mm 0.00 in0.0 mm
04:05 PM 47.5°F8.6°C 25.3°F-3.7°C 42% 5.3 mph N8.5 kmh N 8.7 mph14.0 kmh 30.21 in1023.0 mb 0.00 in0.0 mm 0.00 in0.0 mm 0.00 in0.0 mm
04:00 PM 47.6°F8.7°C 25.4°F-3.7°C 42% 6.0 mph N9.7 kmh N 9.4 mph15.1 kmh 30.21 in1023.0 mb 0.00 in0.0 mm 0.00 in0.0 mm 0.00 in0.0 mm
03:55 PM 47.5°F8.6°C 25.3°F-3.7°C 42% 7.2 mph N11.6 kmh N 9.4 mph15.1 kmh 30.21 in1023.0 mb 0.00 in0.0 mm 0.00 in0.0 mm 0.00 in0.0 mm
03:50 PM 47.7°F8.7°C 25.4°F-3.7°C 42% 6.6 mph NNW10.6 kmh NNW 10.1 mph16.3 kmh 30.21 in1023.0 mb 0.00 in0.0 mm 0.00 in0.0 mm 0.00 in0.0 mm
03:45 PM 47.7°F8.7°C 25.4°F-3.7°C 42% 5.9 mph NNW9.5 kmh NNW 10.3 mph16.6 kmh 30.21 in1023.0 mb 0.00 in0.0 mm 0.00 in0.0 mm 0.00 in0.0 mm
03:40 PM 47.8°F8.8°C 25.8°F-3.4°C 42% 8.1 mph N13.0 kmh N 10.5 mph16.9 kmh 30.21 in1023.0 mb 0.00 in0.0 mm 0.00 in0.0 mm 0.00 in0.0 mm
03:35 PM 47.7°F8.7°C 25.9°F-3.4°C 42% 5.4 mph N8.7 kmh N 11.0 mph17.7 kmh 30.21 in1023.0 mb 0.00 in0.0 mm 0.00 in0.0 mm 0.00 in0.0 mm
03:30 PM 47.7°F8.7°C 26.1°F-3.3°C 43% 4.1 mph N6.6 kmh N 11.0 mph17.7 kmh 30.21 in1023.0 mb 0.00 in0.0 mm 0.00 in0.0 mm 0.00 in0.0 mm
03:25 PM 47.6°F8.7°C 26.0°F-3.3°C 43% 5.6 mph NNW9.0 kmh NNW 10.3 mph16.6 kmh 30.21 in1023.0 mb 0.00 in0.0 mm 0.00 in0.0 mm 0.00 in0.0 mm
03:20 PM 47.7°F8.7°C 27.3°F-2.6°C 45% 6.8 mph N10.9 kmh N 10.7 mph17.2 kmh 30.21 in1023.0 mb 0.00 in0.0 mm 0.00 in0.0 mm 0.00 in0.0 mm
03:15 PM 47.7°F8.7°C 26.7°F-2.9°C 44% 5.4 mph N8.7 kmh N 11.9 mph19.2 kmh 30.20 in1022.7 mb 0.00 in0.0 mm 0.00 in0.0 mm 0.00 in0.0 mm
03:10 PM 47.7°F8.7°C 27.3°F-2.6°C 45% 5.5 mph NNW8.9 kmh NNW 11.9 mph19.2 kmh 30.20 in1022.7 mb 0.00 in0.0 mm 0.00 in0.0 mm 0.00 in0.0 mm
03:05 PM 47.7°F8.7°C 26.3°F-3.2°C 43% 8.7 mph N14.0 kmh N 10.7 mph17.2 kmh 30.20 in1022.7 mb 0.00 in0.0 mm 0.00 in0.0 mm 0.00 in0.0 mm
03:00 PM 47.7°F8.7°C 26.4°F-3.1°C 43% 7.3 mph N11.7 kmh N 12.1 mph19.5 kmh 30.20 in1022.7 mb 0.00 in0.0 mm 0.00 in0.0 mm 0.00 in0.0 mm
02:55 PM 47.5°F8.6°C 27.2°F-2.7°C 45% 5.6 mph NNW9.0 kmh NNW 12.1 mph19.5 kmh 30.20 in1022.7 mb 0.00 in0.0 mm 0.00 in0.0 mm 0.00 in0.0 mm
02:50 PM 47.5°F8.6°C 27.2°F-2.7°C 45% 6.2 mph N10.0 kmh N 10.7 mph17.2 kmh 30.20 in1022.7 mb 0.00 in0.0 mm 0.00 in0.0 mm 0.00 in0.0 mm
02:45 PM 47.4°F8.6°C 26.8°F-2.9°C 44% 6.4 mph NNW10.3 kmh NNW 10.1 mph16.3 kmh 30.20 in1022.7 mb 0.00 in0.0 mm 0.00 in0.0 mm 0.00 in0.0 mm
02:40 PM 47.4°F8.6°C 27.1°F-2.7°C 45% 7.0 mph NNW11.3 kmh NNW 11.0 mph17.7 kmh 30.21 in1023.0 mb 0.00 in0.0 mm 0.00 in0.0 mm 0.00 in0.0 mm
02:35 PM 47.5°F8.6°C 27.2°F-2.7°C 45% 9.0 mph NNW14.5 kmh NNW 12.5 mph20.1 kmh 30.21 in1023.0 mb 0.00 in0.0 mm 0.00 in0.0 mm 0.00 in0.0 mm
02:30 PM 47.3°F8.5°C 27.0°F-2.8°C 45% 7.4 mph N11.9 kmh N 12.5 mph20.1 kmh 30.21 in1023.0 mb 0.00 in0.0 mm 0.00 in0.0 mm 0.00 in0.0 mm
02:25 PM 47.6°F8.7°C 27.7°F-2.4°C 46% 8.0 mph NNW12.9 kmh NNW 12.3 mph19.8 kmh 30.21 in1023.0 mb 0.00 in0.0 mm 0.00 in0.0 mm 0.00 in0.0 mm
02:20 PM 47.4°F8.6°C 27.9°F-2.3°C 46% 6.5 mph N10.5 kmh N 10.1 mph16.3 kmh 30.21 in1023.0 mb 0.00 in0.0 mm 0.00 in0.0 mm 0.00 in0.0 mm
02:15 PM 47.3°F8.5°C 28.2°F-2.1°C 47% 6.0 mph N9.7 kmh N 9.4 mph15.1 kmh 30.21 in1023.0 mb 0.00 in0.0 mm 0.00 in0.0 mm 0.00 in0.0 mm
02:10 PM 47.5°F8.6°C 28.4°F-2.0°C 47% 5.0 mph N8.0 kmh N 10.3 mph16.6 kmh 30.21 in1023.0 mb 0.00 in0.0 mm 0.00 in0.0 mm 0.00 in0.0 mm
02:05 PM 47.3°F8.5°C 28.2°F-2.1°C 47% 6.7 mph NNW10.8 kmh NNW 10.3 mph16.6 kmh 30.21 in1023.0 mb 0.00 in0.0 mm 0.00 in0.0 mm 0.00 in0.0 mm
02:00 PM 47.2°F8.4°C 27.4°F-2.6°C 46% 6.1 mph NNW9.8 kmh NNW 8.1 mph13.0 kmh 30.21 in1023.0 mb 0.00 in0.0 mm 0.00 in0.0 mm 0.00 in0.0 mm
01:55 PM 47.2°F8.4°C 28.1°F-2.2°C 47% 4.3 mph N6.9 kmh N 10.3 mph16.6 kmh 30.21 in1023.0 mb 0.00 in0.0 mm 0.00 in0.0 mm 0.00 in0.0 mm
01:50 PM 47.3°F8.5°C 28.2°F-2.1°C 47% 7.7 mph NNW12.4 kmh NNW 13.4 mph21.6 kmh 30.21 in1023.0 mb 0.00 in0.0 mm 0.00 in0.0 mm 0.00 in0.0 mm
01:45 PM 47.3°F8.5°C 28.2°F-2.1°C 47% 7.5 mph N12.1 kmh N 13.4 mph21.6 kmh 30.21 in1023.0 mb 0.00 in0.0 mm 0.00 in0.0 mm 0.00 in0.0 mm
01:40 PM 47.3°F8.5°C 28.2°F-2.1°C 47% 7.3 mph NNW11.7 kmh NNW 12.3 mph19.8 kmh 30.22 in1023.4 mb 0.00 in0.0 mm 0.00 in0.0 mm 0.00 in0.0 mm
01:35 PM 47.3°F8.5°C 28.2°F-2.1°C 47% 6.1 mph NE9.8 kmh NE 12.3 mph19.8 kmh 30.21 in1023.0 mb 0.00 in0.0 mm 0.00 in0.0 mm 0.00 in0.0 mm
01:30 PM 47.4°F8.6°C 29.4°F-1.4°C 49% 6.8 mph N10.9 kmh N 12.3 mph19.8 kmh 30.21 in1023.0 mb 0.00 in0.0 mm 0.00 in0.0 mm 0.00 in0.0 mm
01:25 PM 47.2°F8.4°C 29.2°F-1.6°C 49% 5.8 mph NNE9.3 kmh NNE 10.1 mph16.3 kmh 30.22 in1023.4 mb 0.00 in0.0 mm 0.00 in0.0 mm 0.00 in0.0 mm
01:20 PM 47.1°F8.4°C 28.0°F-2.2°C 47% 5.8 mph N9.3 kmh N 10.7 mph17.2 kmh 30.22 in1023.4 mb 0.00 in0.0 mm 0.00 in0.0 mm 0.00 in0.0 mm
01:15 PM 47.0°F8.3°C 27.9°F-2.3°C 47% 5.9 mph N9.5 kmh N 10.7 mph17.2 kmh 30.22 in1023.4 mb 0.00 in0.0 mm 0.00 in0.0 mm 0.00 in0.0 mm
01:10 PM 47.1°F8.4°C 29.5°F-1.4°C 50% 6.0 mph N9.7 kmh N 9.8 mph15.8 kmh 30.22 in1023.4 mb 0.00 in0.0 mm 0.00 in0.0 mm 0.00 in0.0 mm
01:05 PM 46.9°F8.3°C 29.2°F-1.6°C 50% 6.1 mph N9.8 kmh N 10.1 mph16.3 kmh 30.22 in1023.4 mb 0.00 in0.0 mm 0.00 in0.0 mm 0.00 in0.0 mm
01:00 PM 47.1°F8.4°C 29.0°F-1.7°C 49% 7.4 mph N11.9 kmh N 10.3 mph16.6 kmh 30.22 in1023.4 mb 0.00 in0.0 mm 0.00 in0.0 mm 0.00 in0.0 mm
12:55 PM 47.0°F8.3°C 29.6°F-1.3°C 51% 7.5 mph N12.1 kmh N 10.3 mph16.6 kmh 30.22 in1023.4 mb 0.00 in0.0 mm 0.00 in0.0 mm 0.00 in0.0 mm
12:50 PM 46.8°F8.2°C 29.4°F-1.4°C 51% 7.1 mph NNW11.4 kmh NNW 10.1 mph16.3 kmh 30.22 in1023.4 mb 0.00 in0.0 mm 0.00 in0.0 mm 0.00 in0.0 mm
12:45 PM 46.9°F8.3°C 29.5°F-1.4°C 51% 7.0 mph N11.3 kmh N 11.4 mph18.3 kmh 30.22 in1023.4 mb 0.00 in0.0 mm 0.00 in0.0 mm 0.00 in0.0 mm
12:40 PM 46.9°F8.3°C 29.6°F-1.3°C 51% 6.1 mph N9.8 kmh N 12.1 mph19.5 kmh 30.22 in1023.4 mb 0.00 in0.0 mm 0.00 in0.0 mm 0.00 in0.0 mm
12:35 PM 46.8°F8.2°C 29.4°F-1.4°C 51% 7.4 mph NNE11.9 kmh NNE 12.1 mph19.5 kmh 30.22 in1023.4 mb 0.00 in0.0 mm 0.00 in0.0 mm 0.00 in0.0 mm
12:30 PM 47.1°F8.4°C 30.0°F-1.1°C 51% 7.1 mph NNW11.4 kmh NNW 8.9 mph14.3 kmh 30.22 in1023.4 mb 0.00 in0.0 mm 0.00 in0.0 mm 0.00 in0.0 mm
12:25 PM 46.8°F8.2°C 29.9°F-1.2°C 52% 4.5 mph N7.2 kmh N 8.1 mph13.0 kmh 30.22 in1023.4 mb 0.00 in0.0 mm 0.00 in0.0 mm 0.00 in0.0 mm
12:20 PM 46.7°F8.2°C 29.9°F-1.2°C 52% 6.3 mph N10.1 kmh N 8.1 mph13.0 kmh 30.22 in1023.4 mb 0.00 in0.0 mm 0.00 in0.0 mm 0.00 in0.0 mm
12:15 PM 46.3°F7.9°C 29.5°F-1.4°C 52% 5.0 mph NNE8.0 kmh NNE 10.1 mph16.3 kmh 30.22 in1023.4 mb 0.00 in0.0 mm 0.00 in0.0 mm 0.00 in0.0 mm
12:10 PM 46.1°F7.8°C 29.3°F-1.5°C 52% 5.3 mph N8.5 kmh N 13.0 mph20.9 kmh 30.22 in1023.4 mb 0.00 in0.0 mm 0.00 in0.0 mm 0.00 in0.0 mm
12:05 PM 46.1°F7.8°C 29.3°F-1.5°C 52% 6.9 mph NNW11.1 kmh NNW 13.0 mph20.9 kmh 30.22 in1023.4 mb 0.00 in0.0 mm 0.00 in0.0 mm 0.00 in0.0 mm
12:00 PM 46.0°F7.8°C 29.2°F-1.6°C 52% 5.9 mph N9.5 kmh N 10.7 mph17.2 kmh 30.22 in1023.4 mb 0.00 in0.0 mm 0.00 in0.0 mm 0.00 in0.0 mm
11:55 AM 46.5°F8.1°C 29.7°F-1.3°C 52% 6.1 mph N9.8 kmh N 10.7 mph17.2 kmh 30.22 in1023.4 mb 0.00 in0.0 mm 0.00 in0.0 mm 0.00 in0.0 mm
11:50 AM 46.5°F8.1°C 30.2°F-1.0°C 53% 5.0 mph N8.0 kmh N 8.9 mph14.3 kmh 30.22 in1023.4 mb 0.00 in0.0 mm 0.00 in0.0 mm 0.00 in0.0 mm
11:45 AM 46.2°F7.9°C 29.9°F-1.2°C 53% 4.4 mph N7.1 kmh N 8.5 mph13.7 kmh 30.22 in1023.4 mb 0.00 in0.0 mm 0.00 in0.0 mm 0.00 in0.0 mm
11:40 AM 45.9°F7.7°C 29.6°F-1.3°C 53% 3.9 mph N6.3 kmh N 8.5 mph13.7 kmh 30.22 in1023.4 mb 0.00 in0.0 mm 0.00 in0.0 mm 0.00 in0.0 mm
11:35 AM 45.5°F7.5°C 29.3°F-1.5°C 53% 4.2 mph N6.8 kmh N 7.8 mph12.6 kmh 30.22 in1023.4 mb 0.00 in0.0 mm 0.00 in0.0 mm 0.00 in0.0 mm
11:30 AM 45.1°F7.3°C 29.0°F-1.7°C 53% 6.8 mph NNW10.9 kmh NNW 10.1 mph16.3 kmh 30.22 in1023.4 mb 0.00 in0.0 mm 0.00 in0.0 mm 0.00 in0.0 mm
11:25 AM 44.8°F7.1°C 28.9°F-1.7°C 53% 5.4 mph N8.7 kmh N 10.1 mph16.3 kmh 30.22 in1023.4 mb 0.00 in0.0 mm 0.00 in0.0 mm 0.00 in0.0 mm
11:20 AM 45.1°F7.3°C 29.3°F-1.5°C 54% 5.4 mph N8.7 kmh N 8.7 mph14.0 kmh 30.22 in1023.4 mb 0.00 in0.0 mm 0.00 in0.0 mm 0.00 in0.0 mm
11:15 AM 45.0°F7.2°C 29.4°F-1.4°C 54% 5.7 mph N9.2 kmh N 7.8 mph12.6 kmh 30.22 in1023.4 mb 0.00 in0.0 mm 0.00 in0.0 mm 0.00 in0.0 mm
11:10 AM 44.3°F6.8°C 28.7°F-1.8°C 54% 4.3 mph N6.9 kmh N 11.0 mph17.7 kmh 30.22 in1023.4 mb 0.00 in0.0 mm 0.00 in0.0 mm 0.00 in0.0 mm
11:05 AM 43.9°F6.6°C 28.2°F-2.1°C 54% 6.0 mph N9.7 kmh N 11.0 mph17.7 kmh 30.22 in1023.4 mb 0.00 in0.0 mm 0.00 in0.0 mm 0.00 in0.0 mm
11:00 AM 43.9°F6.6°C 28.4°F-2.0°C 54% 7.8 mph N12.6 kmh N 10.7 mph17.2 kmh 30.22 in1023.4 mb 0.00 in0.0 mm 0.00 in0.0 mm 0.00 in0.0 mm
10:55 AM 44.1°F6.7°C 29.0°F-1.7°C 55% 7.7 mph N12.4 kmh N 10.7 mph17.2 kmh 30.22 in1023.4 mb 0.00 in0.0 mm 0.00 in0.0 mm 0.00 in0.0 mm
10:50 AM 43.9°F6.6°C 29.5°F-1.4°C 57% 5.5 mph N8.9 kmh N 8.5 mph13.7 kmh 30.21 in1023.0 mb 0.00 in0.0 mm 0.00 in0.0 mm 0.00 in0.0 mm
10:45 AM 43.1°F6.2°C 28.3°F-2.1°C 56% 5.9 mph N9.5 kmh N 8.7 mph14.0 kmh 30.21 in1023.0 mb 0.00 in0.0 mm 0.00 in0.0 mm 0.00 in0.0 mm
10:40 AM 42.6°F5.9°C 28.1°F-2.2°C 56% 5.2 mph N8.4 kmh N 10.5 mph16.9 kmh 30.21 in1023.0 mb 0.00 in0.0 mm 0.00 in0.0 mm 0.00 in0.0 mm
10:35 AM 42.3°F5.7°C 27.6°F-2.4°C 56% 6.5 mph N10.5 kmh N 14.5 mph23.3 kmh 30.21 in1023.0 mb 0.00 in0.0 mm 0.00 in0.0 mm 0.00 in0.0 mm
10:30 AM 42.4°F5.8°C 27.7°F-2.4°C 56% 8.4 mph N13.5 kmh N 14.5 mph23.3 kmh 30.21 in1023.0 mb 0.00 in0.0 mm 0.00 in0.0 mm 0.00 in0.0 mm
10:25 AM 42.2°F5.7°C 28.3°F-2.1°C 58% 5.9 mph N9.5 kmh N 8.5 mph13.7 kmh 30.21 in1023.0 mb 0.00 in0.0 mm 0.00 in0.0 mm 0.00 in0.0 mm
10:20 AM 41.7°F5.4°C 29.2°F-1.6°C 61% 5.0 mph N8.0 kmh N 10.3 mph16.6 kmh 30.21 in1023.0 mb 0.00 in0.0 mm 0.00 in0.0 mm 0.00 in0.0 mm
10:15 AM 40.7°F4.8°C 28.1°F-2.2°C 60% 6.8 mph N10.9 kmh N 10.3 mph16.6 kmh 30.21 in1023.0 mb 0.00 in0.0 mm 0.00 in0.0 mm 0.00 in0.0 mm
10:10 AM 40.9°F4.9°C 29.3°F-1.5°C 63% 7.2 mph N11.6 kmh N 10.3 mph16.6 kmh 30.21 in1023.0 mb 0.00 in0.0 mm 0.00 in0.0 mm 0.00 in0.0 mm
10:05 AM 40.1°F4.5°C 27.8°F-2.3°C 61% 6.9 mph N11.1 kmh N 11.2 mph18.0 kmh 30.20 in1022.7 mb 0.00 in0.0 mm 0.00 in0.0 mm 0.00 in0.0 mm
10:00 AM 40.2°F4.6°C 28.6°F-1.9°C 63% 7.2 mph NNW11.6 kmh NNW 11.2 mph18.0 kmh 30.20 in1022.7 mb 0.00 in0.0 mm 0.00 in0.0 mm 0.00 in0.0 mm
09:55 AM 39.7°F4.3°C 29.2°F-1.6°C 66% 5.1 mph N8.2 kmh N 9.6 mph15.4 kmh 30.20 in1022.7 mb 0.00 in0.0 mm 0.00 in0.0 mm 0.00 in0.0 mm
09:50 AM 38.4°F3.6°C 27.8°F-2.3°C 65% 5.8 mph N9.3 kmh N 10.1 mph16.3 kmh 30.20 in1022.7 mb 0.00 in0.0 mm 0.00 in0.0 mm 0.00 in0.0 mm
09:45 AM 37.7°F3.2°C 27.1°F-2.7°C 65% 6.9 mph N11.1 kmh N 12.3 mph19.8 kmh 30.20 in1022.7 mb 0.00 in0.0 mm 0.00 in0.0 mm 0.00 in0.0 mm
09:40 AM 37.3°F2.9°C 26.7°F-2.9°C 65% 7.2 mph N11.6 kmh N 12.3 mph19.8 kmh 30.20 in1022.7 mb 0.00 in0.0 mm 0.00 in0.0 mm 0.00 in0.0 mm
09:35 AM 37.4°F3.0°C 26.9°F-2.8°C 65% 6.8 mph N10.9 kmh N 12.8 mph20.6 kmh 30.20 in1022.7 mb 0.00 in0.0 mm 0.00 in0.0 mm 0.00 in0.0 mm
09:30 AM 38.1°F3.4°C 27.9°F-2.3°C 66% 7.3 mph NNW11.7 kmh NNW 12.8 mph20.6 kmh 30.19 in1022.4 mb 0.00 in0.0 mm 0.00 in0.0 mm 0.00 in0.0 mm
09:25 AM 38.3°F3.5°C 29.3°F-1.5°C 70% 5.0 mph N8.0 kmh N 10.1 mph16.3 kmh 30.19 in1022.4 mb 0.00 in0.0 mm 0.00 in0.0 mm 0.00 in0.0 mm
09:20 AM 37.3°F2.9°C 28.2°F-2.1°C 69% 6.3 mph N10.1 kmh N 10.7 mph17.2 kmh 30.19 in1022.4 mb 0.00 in0.0 mm 0.00 in0.0 mm 0.00 in0.0 mm
09:15 AM 36.2°F2.3°C 26.8°F-2.9°C 69% 7.7 mph NNW12.4 kmh NNW 13.4 mph21.6 kmh 30.19 in1022.4 mb 0.00 in0.0 mm 0.00 in0.0 mm 0.00 in0.0 mm
09:10 AM 35.8°F2.1°C 26.6°F-3.0°C 69% 7.4 mph NNW11.9 kmh NNW 13.4 mph21.6 kmh 30.18 in1022.0 mb 0.00 in0.0 mm 0.00 in0.0 mm 0.00 in0.0 mm
09:05 AM 35.8°F2.1°C 26.9°F-2.8°C 70% 7.9 mph NNW12.7 kmh NNW 11.2 mph18.0 kmh 30.18 in1022.0 mb 0.00 in0.0 mm 0.00 in0.0 mm 0.00 in0.0 mm
09:00 AM 35.7°F2.1°C 27.2°F-2.7°C 71% 7.3 mph NNW11.7 kmh NNW 9.6 mph15.4 kmh 30.18 in1022.0 mb 0.00 in0.0 mm 0.00 in0.0 mm 0.00 in0.0 mm
08:55 AM 35.5°F1.9°C 27.0°F-2.8°C 71% 5.5 mph NNW8.9 kmh NNW 10.5 mph16.9 kmh 30.18 in1022.0 mb 0.00 in0.0 mm 0.00 in0.0 mm 0.00 in0.0 mm
08:50 AM 35.4°F1.9°C 27.0°F-2.8°C 71% 9.0 mph NNW14.5 kmh NNW 12.3 mph19.8 kmh 30.18 in1022.0 mb 0.00 in0.0 mm 0.00 in0.0 mm 0.00 in0.0 mm
08:45 AM 35.4°F1.9°C 27.2°F-2.7°C 72% 8.2 mph N13.2 kmh N 12.3 mph19.8 kmh 30.18 in1022.0 mb 0.00 in0.0 mm 0.00 in0.0 mm 0.00 in0.0 mm
08:40 AM 35.2°F1.8°C 26.8°F-2.9°C 71% 6.6 mph N10.6 kmh N 13.0 mph20.9 kmh 30.17 in1021.7 mb 0.00 in0.0 mm 0.00 in0.0 mm 0.00 in0.0 mm
08:35 AM 35.1°F1.7°C 26.9°F-2.8°C 72% 8.6 mph N13.8 kmh N 13.0 mph20.9 kmh 30.17 in1021.7 mb 0.00 in0.0 mm 0.00 in0.0 mm 0.00 in0.0 mm
08:30 AM 35.1°F1.7°C 27.0°F-2.8°C 72% 6.0 mph NNW9.7 kmh NNW 12.1 mph19.5 kmh 30.17 in1021.7 mb 0.00 in0.0 mm 0.00 in0.0 mm 0.00 in0.0 mm
08:25 AM 35.0°F1.7°C 27.0°F-2.8°C 72% 7.0 mph N11.3 kmh N 11.0 mph17.7 kmh 30.17 in1021.7 mb 0.00 in0.0 mm 0.00 in0.0 mm 0.00 in0.0 mm
08:20 AM 34.9°F1.6°C 27.0°F-2.8°C 73% 7.3 mph N11.7 kmh N 11.0 mph17.7 kmh 30.17 in1021.7 mb 0.00 in0.0 mm 0.00 in0.0 mm 0.00 in0.0 mm
08:15 AM 34.9°F1.6°C 27.2°F-2.7°C 73% 6.3 mph N10.1 kmh N 10.5 mph16.9 kmh 30.17 in1021.7 mb 0.00 in0.0 mm 0.00 in0.0 mm 0.00 in0.0 mm
08:10 AM 34.9°F1.6°C 27.3°F-2.6°C 73% 7.7 mph N12.4 kmh N 10.7 mph17.2 kmh 30.16 in1021.3 mb 0.00 in0.0 mm 0.00 in0.0 mm 0.00 in0.0 mm
08:05 AM 34.7°F1.5°C 27.3°F-2.6°C 74% 7.5 mph NNW12.1 kmh NNW 12.3 mph19.8 kmh 30.16 in1021.3 mb 0.00 in0.0 mm 0.00 in0.0 mm 0.00 in0.0 mm
08:00 AM 34.7°F1.5°C 27.4°F-2.6°C 74% 6.3 mph N10.1 kmh N 12.3 mph19.8 kmh 30.16 in1021.3 mb 0.00 in0.0 mm 0.00 in0.0 mm 0.00 in0.0 mm
07:55 AM 34.6°F1.4°C 27.4°F-2.6°C 75% 6.5 mph NNW10.5 kmh NNW 10.1 mph16.3 kmh 30.16 in1021.3 mb 0.00 in0.0 mm 0.00 in0.0 mm 0.00 in0.0 mm
07:50 AM 34.5°F1.4°C 27.6°F-2.4°C 76% 6.4 mph N10.3 kmh N 10.1 mph16.3 kmh 30.16 in1021.3 mb 0.00 in0.0 mm 0.00 in0.0 mm 0.00 in0.0 mm
07:45 AM 34.5°F1.4°C 27.8°F-2.3°C 76% 5.9 mph NNW9.5 kmh NNW 8.5 mph13.7 kmh 30.15 in1021.0 mb 0.00 in0.0 mm 0.00 in0.0 mm 0.00 in0.0 mm
07:40 AM 34.5°F1.4°C 28.0°F-2.2°C 77% 6.0 mph NNW9.7 kmh NNW 10.5 mph16.9 kmh 30.15 in1021.0 mb 0.00 in0.0 mm 0.00 in0.0 mm 0.00 in0.0 mm
07:35 AM 34.4°F1.3°C 27.5°F-2.5°C 76% 5.7 mph N9.2 kmh N 10.5 mph16.9 kmh 30.15 in1021.0 mb 0.00 in0.0 mm 0.00 in0.0 mm 0.00 in0.0 mm
07:30 AM 34.3°F1.3°C 27.5°F-2.5°C 76% 7.6 mph N12.2 kmh N 13.2 mph21.2 kmh 30.15 in1021.0 mb 0.00 in0.0 mm 0.00 in0.0 mm 0.00 in0.0 mm
07:25 AM 34.3°F1.3°C 27.4°F-2.6°C 76% 8.1 mph N13.0 kmh N 13.2 mph21.2 kmh 30.15 in1021.0 mb 0.00 in0.0 mm 0.00 in0.0 mm 0.00 in0.0 mm
07:20 AM 34.3°F1.3°C 27.4°F-2.6°C 76% 8.3 mph N13.4 kmh N 11.0 mph17.7 kmh 30.14 in1020.7 mb 0.00 in0.0 mm 0.00 in0.0 mm 0.00 in0.0 mm
07:15 AM 34.3°F1.3°C 27.2°F-2.7°C 75% 5.5 mph N8.9 kmh N 11.0 mph17.7 kmh 30.14 in1020.7 mb 0.00 in0.0 mm 0.00 in0.0 mm 0.00 in0.0 mm
07:10 AM 34.3°F1.3°C 27.4°F-2.6°C 75% 8.5 mph NNW13.7 kmh NNW 11.0 mph17.7 kmh 30.14 in1020.7 mb 0.00 in0.0 mm 0.00 in0.0 mm 0.00 in0.0 mm
07:05 AM 34.3°F1.3°C 27.4°F-2.6°C 76% 7.4 mph N11.9 kmh N 10.5 mph16.9 kmh 30.14 in1020.7 mb 0.00 in0.0 mm 0.00 in0.0 mm 0.00 in0.0 mm
07:00 AM 34.3°F1.3°C 27.4°F-2.6°C 76% 5.3 mph NNW8.5 kmh NNW 8.5 mph13.7 kmh 30.13 in1020.3 mb 0.00 in0.0 mm 0.00 in0.0 mm 0.00 in0.0 mm
06:55 AM 34.4°F1.3°C 27.5°F-2.5°C 76% 6.7 mph N10.8 kmh N 8.5 mph13.7 kmh 30.13 in1020.3 mb 0.00 in0.0 mm 0.00 in0.0 mm 0.00 in0.0 mm
06:50 AM 34.5°F1.4°C 27.6°F-2.4°C 76% 5.2 mph N8.4 kmh N 10.5 mph16.9 kmh 30.13 in1020.3 mb 0.00 in0.0 mm 0.00 in0.0 mm 0.00 in0.0 mm
06:45 AM 34.5°F1.4°C 27.6°F-2.4°C 76% 5.6 mph N9.0 kmh N 11.9 mph19.2 kmh 30.13 in1020.3 mb 0.00 in0.0 mm 0.00 in0.0 mm 0.00 in0.0 mm
06:40 AM 34.5°F1.4°C 27.8°F-2.3°C 76% 7.6 mph NNW12.2 kmh NNW 11.9 mph19.2 kmh 30.13 in1020.3 mb 0.00 in0.0 mm 0.00 in0.0 mm 0.00 in0.0 mm
06:35 AM 34.5°F1.4°C 28.0°F-2.2°C 77% 4.6 mph NNW7.4 kmh NNW 10.1 mph16.3 kmh 30.13 in1020.3 mb 0.00 in0.0 mm 0.00 in0.0 mm 0.00 in0.0 mm
06:30 AM 34.7°F1.5°C 28.1°F-2.2°C 77% 7.6 mph N12.2 kmh N 10.1 mph16.3 kmh 30.12 in1020.0 mb 0.00 in0.0 mm 0.00 in0.0 mm 0.00 in0.0 mm
06:25 AM 34.7°F1.5°C 28.1°F-2.2°C 77% 5.8 mph NNW9.3 kmh NNW 10.3 mph16.6 kmh 30.12 in1020.0 mb 0.00 in0.0 mm 0.00 in0.0 mm 0.00 in0.0 mm
06:20 AM 34.8°F1.6°C 28.2°F-2.1°C 77% 6.6 mph NNW10.6 kmh NNW 10.3 mph16.6 kmh 30.12 in1020.0 mb 0.00 in0.0 mm 0.00 in0.0 mm 0.00 in0.0 mm
06:15 AM 34.9°F1.6°C 28.3°F-2.1°C 77% 6.6 mph N10.6 kmh N 10.5 mph16.9 kmh 30.12 in1020.0 mb 0.00 in0.0 mm 0.00 in0.0 mm 0.00 in0.0 mm
06:10 AM 34.9°F1.6°C 28.5°F-1.9°C 77% 7.1 mph N11.4 kmh N 10.5 mph16.9 kmh 30.12 in1020.0 mb 0.00 in0.0 mm 0.00 in0.0 mm 0.00 in0.0 mm
06:05 AM 34.9°F1.6°C 28.7°F-1.8°C 78% 5.9 mph N9.5 kmh N 10.3 mph16.6 kmh 30.12 in1020.0 mb 0.00 in0.0 mm 0.00 in0.0 mm 0.00 in0.0 mm
06:00 AM 34.9°F1.6°C 28.7°F-1.8°C 78% 7.9 mph N12.7 kmh N 10.3 mph16.6 kmh 30.11 in1019.6 mb 0.00 in0.0 mm 0.00 in0.0 mm 0.00 in0.0 mm
05:55 AM 34.9°F1.6°C 28.7°F-1.8°C 78% 6.0 mph NNW9.7 kmh NNW 10.3 mph16.6 kmh 30.11 in1019.6 mb 0.00 in0.0 mm 0.00 in0.0 mm 0.00 in0.0 mm
05:50 AM 34.9°F1.6°C 28.7°F-1.8°C 78% 7.4 mph NNW11.9 kmh NNW 10.3 mph16.6 kmh 30.11 in1019.6 mb 0.00 in0.0 mm 0.00 in0.0 mm 0.00 in0.0 mm
05:45 AM 34.9°F1.6°C 28.7°F-1.8°C 78% 6.8 mph N10.9 kmh N 10.1 mph16.3 kmh 30.11 in1019.6 mb 0.00 in0.0 mm 0.00 in0.0 mm 0.00 in0.0 mm
05:40 AM 35.0°F1.7°C 28.8°F-1.8°C 78% 6.2 mph N10.0 kmh N 10.3 mph16.6 kmh 30.11 in1019.6 mb 0.00 in0.0 mm 0.00 in0.0 mm 0.00 in0.0 mm
05:35 AM 35.1°F1.7°C 28.8°F-1.8°C 78% 6.7 mph NNW10.8 kmh NNW 12.8 mph20.6 kmh 30.11 in1019.6 mb 0.00 in0.0 mm 0.00 in0.0 mm 0.00 in0.0 mm
05:30 AM 35.1°F1.7°C 28.8°F-1.8°C 78% 7.5 mph NNW12.1 kmh NNW 12.8 mph20.6 kmh 30.10 in1019.3 mb 0.00 in0.0 mm 0.00 in0.0 mm 0.00 in0.0 mm
05:25 AM 35.1°F1.7°C 29.2°F-1.6°C 79% 7.2 mph N11.6 kmh N 11.0 mph17.7 kmh 30.10 in1019.3 mb 0.00 in0.0 mm 0.00 in0.0 mm 0.00 in0.0 mm
05:20 AM 35.1°F1.7°C 29.2°F-1.6°C 79% 5.8 mph NNW9.3 kmh NNW 8.5 mph13.7 kmh 30.10 in1019.3 mb 0.00 in0.0 mm 0.00 in0.0 mm 0.00 in0.0 mm
05:15 AM 35.1°F1.7°C 29.2°F-1.6°C 79% 7.0 mph N11.3 kmh N 10.7 mph17.2 kmh 30.10 in1019.3 mb 0.00 in0.0 mm 0.00 in0.0 mm 0.00 in0.0 mm
05:10 AM 35.2°F1.8°C 29.4°F-1.4°C 79% 5.7 mph N9.2 kmh N 10.7 mph17.2 kmh 30.10 in1019.3 mb 0.00 in0.0 mm 0.00 in0.0 mm 0.00 in0.0 mm
05:05 AM 35.3°F1.8°C 29.7°F-1.3°C 80% 5.9 mph N9.5 kmh N 9.8 mph15.8 kmh 30.10 in1019.3 mb 0.00 in0.0 mm 0.00 in0.0 mm 0.00 in0.0 mm
05:00 AM 35.4°F1.9°C 30.1°F-1.1°C 81% 6.3 mph N10.1 kmh N 8.7 mph14.0 kmh 30.09 in1019.0 mb 0.00 in0.0 mm 0.00 in0.0 mm 0.00 in0.0 mm
04:55 AM 35.5°F1.9°C 30.3°F-0.9°C 81% 5.9 mph N9.5 kmh N 8.7 mph14.0 kmh 30.09 in1019.0 mb 0.00 in0.0 mm 0.00 in0.0 mm 0.00 in0.0 mm
04:50 AM 35.6°F2.0°C 30.4°F-0.9°C 81% 0.6 mph N1.0 kmh N 7.8 mph12.6 kmh 30.09 in1019.0 mb 0.00 in0.0 mm 0.00 in0.0 mm 0.00 in0.0 mm
04:45 AM 35.6°F2.0°C 30.4°F-0.9°C 81% 6.2 mph NNW10.0 kmh NNW 7.8 mph12.6 kmh 30.09 in1019.0 mb 0.00 in0.0 mm 0.00 in0.0 mm 0.00 in0.0 mm
04:40 AM 35.8°F2.1°C 30.6°F-0.8°C 81% 4.0 mph N6.4 kmh N 8.7 mph14.0 kmh 30.09 in1019.0 mb 0.00 in0.0 mm 0.00 in0.0 mm 0.00 in0.0 mm
04:35 AM 35.8°F2.1°C 30.9°F-0.6°C 82% 5.3 mph N8.5 kmh N 8.7 mph14.0 kmh 30.09 in1019.0 mb 0.00 in0.0 mm 0.00 in0.0 mm 0.00 in0.0 mm
04:30 AM 35.8°F2.1°C 30.9°F-0.6°C 82% 4.1 mph N6.6 kmh N 6.3 mph10.1 kmh 30.09 in1019.0 mb 0.00 in0.0 mm 0.00 in0.0 mm 0.00 in0.0 mm
04:25 AM 35.8°F2.1°C 30.7°F-0.7°C 81% 4.5 mph NNW7.2 kmh NNW 8.7 mph14.0 kmh 30.09 in1019.0 mb 0.00 in0.0 mm 0.00 in0.0 mm 0.00 in0.0 mm
04:20 AM 36.0°F2.2°C 30.8°F-0.7°C 81% 5.2 mph N8.4 kmh N 8.7 mph14.0 kmh 30.09 in1019.0 mb 0.00 in0.0 mm 0.00 in0.0 mm 0.00 in0.0 mm
04:15 AM 36.0°F2.2°C 31.1°F-0.5°C 82% 5.6 mph N9.0 kmh N 7.8 mph12.6 kmh 30.09 in1019.0 mb 0.00 in0.0 mm 0.00 in0.0 mm 0.00 in0.0 mm
04:10 AM 36.0°F2.2°C 31.1°F-0.5°C 82% 2.8 mph NNW4.5 kmh NNW 8.7 mph14.0 kmh 30.09 in1019.0 mb 0.00 in0.0 mm 0.00 in0.0 mm 0.00 in0.0 mm
04:05 AM 36.1°F2.3°C 31.4°F-0.3°C 83% 2.5 mph NNW4.0 kmh NNW 8.7 mph14.0 kmh 30.09 in1019.0 mb 0.00 in0.0 mm 0.00 in0.0 mm 0.00 in0.0 mm
04:00 AM 36.1°F2.3°C 31.6°F-0.2°C 83% 6.3 mph N10.1 kmh N 8.7 mph14.0 kmh 30.08 in1018.6 mb 0.00 in0.0 mm 0.00 in0.0 mm 0.00 in0.0 mm
03:55 AM 36.2°F2.3°C 31.7°F-0.2°C 84% 6.1 mph NNW9.8 kmh NNW 9.6 mph15.4 kmh 30.08 in1018.6 mb 0.00 in0.0 mm 0.00 in0.0 mm 0.00 in0.0 mm
03:50 AM 36.3°F2.4°C 32.2°F0.1°C 85% 6.2 mph N10.0 kmh N 9.6 mph15.4 kmh 30.07 in1018.3 mb 0.00 in0.0 mm 0.00 in0.0 mm 0.00 in0.0 mm
03:45 AM 36.3°F2.4°C 32.8°F0.4°C 87% 5.7 mph NNW9.2 kmh NNW 8.5 mph13.7 kmh 30.07 in1018.3 mb 0.00 in0.0 mm 0.00 in0.0 mm 0.00 in0.0 mm
03:40 AM 36.5°F2.5°C 33.3°F0.7°C 88% 4.3 mph N6.9 kmh N 8.7 mph14.0 kmh 30.07 in1018.3 mb 0.00 in0.0 mm 0.00 in0.0 mm 0.00 in0.0 mm
03:35 AM 36.5°F2.5°C 33.4°F0.8°C 88% 5.8 mph N9.3 kmh N 9.6 mph15.4 kmh 30.07 in1018.3 mb 0.00 in0.0 mm 0.00 in0.0 mm 0.00 in0.0 mm
03:30 AM 36.6°F2.6°C 33.9°F1.1°C 90% 6.6 mph N10.6 kmh N 9.6 mph15.4 kmh 30.07 in1018.3 mb 0.00 in0.0 mm 0.00 in0.0 mm 0.00 in0.0 mm
03:25 AM 36.7°F2.6°C 34.3°F1.3°C 91% 3.9 mph N6.3 kmh N 8.1 mph13.0 kmh 30.07 in1018.3 mb 0.00 in0.0 mm 0.00 in0.0 mm 0.00 in0.0 mm
03:20 AM 36.7°F2.6°C 34.5°F1.4°C 92% 5.1 mph N8.2 kmh N 9.8 mph15.8 kmh 30.07 in1018.3 mb 0.00 in0.0 mm 0.00 in0.0 mm 0.00 in0.0 mm
03:15 AM 36.7°F2.6°C 34.9°F1.6°C 93% 6.2 mph N10.0 kmh N 9.8 mph15.8 kmh 30.07 in1018.3 mb 0.00 in0.0 mm 0.00 in0.0 mm 0.00 in0.0 mm
03:10 AM 36.7°F2.6°C 35.2°F1.8°C 94% 3.5 mph N5.6 kmh N 8.5 mph13.7 kmh 30.07 in1018.3 mb 0.00 in0.0 mm 0.00 in0.0 mm 0.00 in0.0 mm
03:05 AM 36.9°F2.7°C 35.5°F1.9°C 95% 3.4 mph N5.5 kmh N 7.4 mph11.9 kmh 30.07 in1018.3 mb 0.00 in0.0 mm 0.00 in0.0 mm 0.00 in0.0 mm
03:00 AM 36.9°F2.7°C 35.7°F2.1°C 95% 4.8 mph N7.7 kmh N 7.4 mph11.9 kmh 30.07 in1018.3 mb 0.00 in0.0 mm 0.00 in0.0 mm 0.00 in0.0 mm
02:55 AM 36.9°F2.7°C 35.8°F2.1°C 96% 3.7 mph NNW6.0 kmh NNW 7.4 mph11.9 kmh 30.07 in1018.3 mb 0.00 in0.0 mm 0.00 in0.0 mm 0.00 in0.0 mm
02:50 AM 36.9°F2.7°C 35.9°F2.2°C 96% 3.4 mph N5.5 kmh N 5.8 mph9.3 kmh 30.07 in1018.3 mb 0.00 in0.0 mm 0.00 in0.0 mm 0.00 in0.0 mm
02:45 AM 37.0°F2.8°C 35.9°F2.2°C 96% 0.8 mph N1.3 kmh N 5.6 mph9.0 kmh 30.07 in1018.3 mb 0.00 in0.0 mm 0.00 in0.0 mm 0.00 in0.0 mm
02:40 AM 37.0°F2.8°C 36.1°F2.3°C 96% 1.0 mph N1.6 kmh N 6.0 mph9.7 kmh 30.07 in1018.3 mb 0.00 in0.0 mm 0.00 in0.0 mm 0.00 in0.0 mm
02:35 AM 37.0°F2.8°C 36.2°F2.3°C 97% 1.9 mph N3.1 kmh N 8.1 mph13.0 kmh 30.07 in1018.3 mb 0.00 in0.0 mm 0.00 in0.0 mm 0.00 in0.0 mm
02:30 AM 37.0°F2.8°C 36.0°F2.2°C 96% 4.0 mph N6.4 kmh N 9.8 mph15.8 kmh 30.07 in1018.3 mb 0.00 in0.0 mm 0.00 in0.0 mm 0.00 in0.0 mm
02:25 AM 37.0°F2.8°C 35.9°F2.2°C 96% 5.6 mph N9.0 kmh N 10.5 mph16.9 kmh 30.07 in1018.3 mb 0.00 in0.0 mm 0.00 in0.0 mm 0.00 in0.0 mm
02:20 AM 37.0°F2.8°C 35.7°F2.1°C 95% 7.5 mph N12.1 kmh N 11.0 mph17.7 kmh 30.07 in1018.3 mb 0.00 in0.0 mm 0.00 in0.0 mm 0.00 in0.0 mm
02:15 AM 37.1°F2.8°C 35.8°F2.1°C 95% 6.8 mph N10.9 kmh N 11.0 mph17.7 kmh 30.07 in1018.3 mb 0.00 in0.0 mm 0.00 in0.0 mm 0.00 in0.0 mm
02:10 AM 37.2°F2.9°C 35.6°F2.0°C 94% 3.2 mph N5.1 kmh N 7.8 mph12.6 kmh 30.07 in1018.3 mb 0.00 in0.0 mm 0.00 in0.0 mm 0.00 in0.0 mm
02:05 AM 37.2°F2.9°C 35.6°F2.0°C 94% 4.1 mph N6.6 kmh N 9.8 mph15.8 kmh 30.07 in1018.3 mb 0.00 in0.0 mm 0.00 in0.0 mm 0.00 in0.0 mm
02:00 AM 37.4°F3.0°C 35.2°F1.8°C 92% 5.8 mph N9.3 kmh N 9.8 mph15.8 kmh 30.07 in1018.3 mb 0.00 in0.0 mm 0.00 in0.0 mm 0.00 in0.0 mm
01:55 AM 37.4°F3.0°C 35.1°F1.7°C 91% 4.8 mph N7.7 kmh N 10.7 mph17.2 kmh 30.07 in1018.3 mb 0.00 in0.0 mm 0.00 in0.0 mm 0.00 in0.0 mm
01:50 AM 37.5°F3.1°C 35.0°F1.7°C 90% 5.1 mph N8.2 kmh N 10.7 mph17.2 kmh 30.07 in1018.3 mb 0.00 in0.0 mm 0.00 in0.0 mm 0.00 in0.0 mm
01:45 AM 37.6°F3.1°C 35.0°F1.7°C 90% 6.6 mph N10.6 kmh N 12.5 mph20.1 kmh 30.06 in1017.9 mb 0.00 in0.0 mm 0.00 in0.0 mm 0.00 in0.0 mm
01:40 AM 37.9°F3.3°C 35.3°F1.8°C 90% 8.3 mph N13.4 kmh N 12.5 mph20.1 kmh 30.06 in1017.9 mb 0.00 in0.0 mm 0.00 in0.0 mm 0.00 in0.0 mm
01:35 AM 38.1°F3.4°C 35.7°F2.1°C 91% 6.8 mph N10.9 kmh N 11.0 mph17.7 kmh 30.06 in1017.9 mb 0.00 in0.0 mm 0.00 in0.0 mm 0.00 in0.0 mm
01:30 AM 38.1°F3.4°C 35.5°F1.9°C 90% 4.7 mph N7.6 kmh N 11.9 mph19.2 kmh 30.06 in1017.9 mb 0.00 in0.0 mm 0.00 in0.0 mm 0.00 in0.0 mm
01:25 AM 38.2°F3.4°C 35.3°F1.8°C 89% 5.8 mph N9.3 kmh N 13.2 mph21.2 kmh 30.06 in1017.9 mb 0.00 in0.0 mm 0.00 in0.0 mm 0.00 in0.0 mm
01:20 AM 38.4°F3.6°C 35.5°F1.9°C 89% 7.9 mph N12.7 kmh N 13.2 mph21.2 kmh 30.06 in1017.9 mb 0.00 in0.0 mm 0.00 in0.0 mm 0.00 in0.0 mm
01:15 AM 38.6°F3.7°C 35.7°F2.1°C 89% 7.9 mph N12.7 kmh N 12.1 mph19.5 kmh 30.06 in1017.9 mb 0.00 in0.0 mm 0.00 in0.0 mm 0.00 in0.0 mm
01:10 AM 38.8°F3.8°C 36.2°F2.3°C 90% 8.2 mph N13.2 kmh N 12.1 mph19.5 kmh 30.06 in1017.9 mb 0.00 in0.0 mm 0.00 in0.0 mm 0.00 in0.0 mm
01:05 AM 39.0°F3.9°C 36.7°F2.6°C 91% 7.1 mph NNE11.4 kmh NNE 10.5 mph16.9 kmh 30.05 in1017.6 mb 0.00 in0.0 mm 0.00 in0.0 mm 0.00 in0.0 mm
01:00 AM 39.2°F4.0°C 36.9°F2.7°C 91% 6.3 mph N10.1 kmh N 8.7 mph14.0 kmh 30.05 in1017.6 mb 0.00 in0.0 mm 0.00 in0.0 mm 0.00 in0.0 mm
12:55 AM 39.3°F4.1°C 37.0°F2.8°C 91% 4.6 mph NE7.4 kmh NE 12.1 mph19.5 kmh 30.05 in1017.6 mb 0.00 in0.0 mm 0.00 in0.0 mm 0.00 in0.0 mm
12:50 AM 39.4°F4.1°C 37.1°F2.8°C 91% 6.9 mph N11.1 kmh N 13.2 mph21.2 kmh 30.05 in1017.6 mb 0.00 in0.0 mm 0.00 in0.0 mm 0.00 in0.0 mm
12:45 AM 39.6°F4.2°C 37.5°F3.1°C 92% 7.0 mph NNE11.3 kmh NNE 13.2 mph21.2 kmh 30.05 in1017.6 mb 0.00 in0.0 mm 0.00 in0.0 mm 0.00 in0.0 mm
12:40 AM 39.8°F4.3°C 37.8°F3.2°C 93% 7.1 mph NNW11.4 kmh NNW 12.8 mph20.6 kmh 30.04 in1017.3 mb 0.00 in0.0 mm 0.00 in0.0 mm 0.00 in0.0 mm
12:35 AM 40.0°F4.4°C 38.0°F3.3°C 93% 7.1 mph NNW11.4 kmh NNW 12.8 mph20.6 kmh 30.04 in1017.3 mb 0.00 in0.0 mm 0.00 in0.0 mm 0.00 in0.0 mm
12:30 AM 40.1°F4.5°C 37.8°F3.2°C 91% 5.3 mph N8.5 kmh N 12.3 mph19.8 kmh 30.04 in1017.3 mb 0.00 in0.0 mm 0.00 in0.0 mm 0.00 in0.0 mm
12:25 AM 40.3°F4.6°C 38.0°F3.3°C 91% 7.8 mph N12.6 kmh N 12.3 mph19.8 kmh 30.04 in1017.3 mb 0.00 in0.0 mm 0.00 in0.0 mm 0.00 in0.0 mm
12:20 AM 40.6°F4.8°C 38.8°F3.8°C 93% 7.5 mph N12.1 kmh N 12.1 mph19.5 kmh 30.03 in1016.9 mb 0.00 in0.0 mm 0.00 in0.0 mm 0.00 in0.0 mm
12:15 AM 40.8°F4.9°C 39.3°F4.1°C 94% 7.5 mph NNE12.1 kmh NNE 13.0 mph20.9 kmh 30.03 in1016.9 mb 0.00 in0.0 mm 0.00 in0.0 mm 0.00 in0.0 mm
12:10 AM 41.1°F5.1°C 39.7°F4.3°C 95% 7.0 mph N11.3 kmh N 13.0 mph20.9 kmh 30.03 in1016.9 mb 0.00 in0.0 mm 0.00 in0.0 mm 0.00 in0.0 mm
12:05 AM 41.5°F5.3°C 40.1°F4.5°C 95% 6.9 mph NNE11.1 kmh NNE 14.3 mph23.0 kmh 30.02 in1016.6 mb 0.00 in0.0 mm 0.00 in0.0 mm 0.00 in0.0 mm
12:00 AM 41.8°F5.4°C 40.6°F4.8°C 96% 7.9 mph NNE12.7 kmh NNE 14.3 mph23.0 kmh 30.02 in1016.6 mb 0.00 in0.0 mm 0.00 in0.0 mm 0.00 in0.0 mm